Time;durP1;ratioP1;P1;durP2;ratioP2;P2;SDS_P1;SDS_P2;PMS_P1;PMS_P2;Temp;Humidity;BMP_temperature;BMP_pressure;BME280_temperature;BME280_humidity;BME280_pressure;Samples;Min_cycle;Max_cycle;Signal;HPM_P1;HPM_P2
2023/11/06 00:02:04;;;;;;;2.00;1.17;;;10.90;99.90;;;;;;5031880;28;20032;-88
2023/11/06 00:04:31;;;;;;;1.30;1.15;;;10.90;99.90;;;;;;5035985;28;20029;-89
2023/11/06 00:06:57;;;;;;;2.30;1.30;;;10.90;99.90;;;;;;5030829;28;20028;-89
2023/11/06 00:09:23;;;;;;;3.90;1.50;;;10.90;99.90;;;;;;5029864;28;20416;-88
2023/11/06 00:11:49;;;;;;;1.80;1.27;;;10.80;99.90;;;;;;5029921;28;20115;-88
2023/11/06 00:14:15;;;;;;;2.55;1.10;;;10.80;99.90;;;;;;5032142;28;20488;-89
2023/11/06 00:16:41;;;;;;;2.65;1.30;;;10.80;99.90;;;;;;5028832;28;20036;-89
2023/11/06 00:19:06;;;;;;;2.95;1.38;;;10.80;99.90;;;;;;5030915;28;20485;-88
2023/11/06 00:21:33;;;;;;;2.33;1.02;;;10.80;99.90;;;;;;5033934;28;20026;-89
2023/11/06 00:23:59;;;;;;;2.58;1.08;;;10.80;99.90;;;;;;5029363;28;20550;-88
2023/11/06 00:26:24;;;;;;;3.10;1.20;;;10.80;99.90;;;;;;5031975;28;20479;-88
2023/11/06 00:28:50;;;;;;;1.75;1.15;;;10.80;99.90;;;;;;5033307;28;20442;-88
2023/11/06 00:31:16;;;;;;;3.85;1.50;;;10.80;99.90;;;;;;5026894;28;20026;-89
2023/11/06 00:33:42;;;;;;;1.95;0.95;;;10.80;99.90;;;;;;5033203;28;20029;-88
2023/11/06 00:36:28;;;;;;;2.72;1.40;;;10.80;99.90;;;;;;5030726;28;20108;-88
2023/11/06 00:38:53;;;;;;;1.70;1.00;;;10.80;99.90;;;;;;5031043;28;20034;-87
2023/11/06 00:41:19;;;;;;;2.90;1.00;;;10.80;99.90;;;;;;5028672;28;20504;-87
2023/11/06 00:43:45;;;;;;;2.00;1.08;;;10.80;99.90;;;;;;5030913;28;20049;-89
2023/11/06 00:46:10;;;;;;;1.40;1.20;;;10.70;99.90;;;;;;5032500;28;20052;-89
2023/11/06 00:48:36;;;;;;;2.67;1.20;;;10.80;99.90;;;;;;5031688;28;20448;-88
2023/11/06 00:51:01;;;;;;;3.50;1.30;;;10.80;99.90;;;;;;5035719;28;20499;-88
2023/11/06 00:53:27;;;;;;;6.35;1.40;;;10.80;99.90;;;;;;5036671;28;20017;-91
2023/11/06 00:55:53;;;;;;;2.22;1.20;;;10.70;99.90;;;;;;5030148;28;20100;-87
2023/11/06 00:58:20;;;;;;;2.78;1.45;;;10.70;99.90;;;;;;5029841;28;20412;-88
2023/11/06 01:00:45;;;;;;;2.95;1.20;;;10.70;99.90;;;;;;5028480;28;20033;-87
2023/11/06 01:03:11;;;;;;;2.45;1.40;;;10.80;99.90;;;;;;5028459;28;20025;-86
2023/11/06 01:05:37;;;;;;;3.20;1.80;;;10.70;99.90;;;;;;5023620;28;20036;-88
2023/11/06 01:08:04;;;;;;;2.15;1.30;;;10.70;99.90;;;;;;5027958;28;20087;-88
2023/11/06 01:10:31;;;;;;;3.08;1.30;;;10.70;99.90;;;;;;5029514;28;20017;-88
2023/11/06 01:12:59;;;;;;;4.55;1.30;;;10.70;99.90;;;;;;5022283;28;20021;-89
2023/11/06 01:15:28;;;;;;;3.97;1.33;;;10.70;99.90;;;;;;5027899;28;20025;-87
2023/11/06 01:17:54;;;;;;;3.25;1.50;;;10.60;99.90;;;;;;5026881;28;20021;-88
2023/11/06 01:20:24;;;;;;;4.32;1.60;;;10.60;99.90;;;;;;5026500;28;20109;-88
2023/11/06 01:22:49;;;;;;;3.70;1.50;;;10.60;99.90;;;;;;5031209;28;20022;-87
2023/11/06 01:25:15;;;;;;;2.22;1.10;;;10.60;99.90;;;;;;5026761;28;20040;-88
2023/11/06 01:27:40;;;;;;;2.15;1.10;;;10.70;99.90;;;;;;5018016;28;20048;-88
2023/11/06 01:30:07;;;;;;;3.05;1.10;;;10.70;99.90;;;;;;5040723;28;20037;-88
2023/11/06 01:32:33;;;;;;;2.47;1.70;;;10.60;99.90;;;;;;5045732;28;20499;-87
2023/11/06 01:34:59;;;;;;;2.25;1.00;;;10.60;99.90;;;;;;5041120;28;20034;-86
2023/11/06 01:37:26;;;;;;;1.98;1.20;;;10.60;99.90;;;;;;5033720;28;20516;-89
2023/11/06 01:39:52;;;;;;;1.60;0.80;;;10.60;99.90;;;;;;5024418;28;20021;-86
2023/11/06 01:42:17;;;;;;;2.83;1.00;;;10.60;99.90;;;;;;5029953;28;20027;-86
2023/11/06 01:44:43;;;;;;;1.83;1.00;;;10.60;99.90;;;;;;5024875;28;20059;-85
2023/11/06 01:47:09;;;;;;;1.25;0.98;;;10.70;99.90;;;;;;5031848;28;20033;-85
2023/11/06 01:49:40;;;;;;;2.22;1.38;;;10.70;99.90;;;;;;5037444;28;20038;-85
2023/11/06 01:52:10;;;;;;;1.17;0.82;;;10.70;99.90;;;;;;5046110;28;20025;-86
2023/11/06 01:54:37;;;;;;;1.15;0.80;;;10.70;99.90;;;;;;5041050;28;20033;-87
2023/11/06 01:57:03;;;;;;;3.05;0.90;;;10.70;99.90;;;;;;5028825;28;20026;-86
2023/11/06 01:59:29;;;;;;;0.85;0.80;;;10.80;99.90;;;;;;5027918;28;20034;-85
2023/11/06 02:02:05;;;;;;;1.40;0.80;;;10.80;99.90;;;;;;5026325;28;20022;-86
2023/11/06 02:04:31;;;;;;;1.35;0.90;;;10.80;99.90;;;;;;5026083;28;20013;-85
2023/11/06 02:06:57;;;;;;;1.52;1.00;;;10.90;99.90;;;;;;5021060;28;20027;-85
2023/11/06 02:09:25;;;;;;;0.73;0.73;;;10.80;99.90;;;;;;5024396;28;20063;-86
2023/11/06 02:11:51;;;;;;;1.05;0.82;;;10.80;99.90;;;;;;5025170;28;20017;-86
2023/11/06 02:14:16;;;;;;;1.35;0.90;;;10.80;99.90;;;;;;5022019;28;20029;-85
2023/11/06 02:16:42;;;;;;;1.02;0.90;;;10.90;99.90;;;;;;5025684;28;20323;-86
2023/11/06 02:19:07;;;;;;;1.00;0.80;;;10.90;99.90;;;;;;5026081;28;20575;-87
2023/11/06 02:21:34;;;;;;;1.40;0.80;;;10.90;99.90;;;;;;5025701;28;20025;-86
2023/11/06 02:24:00;;;;;;;1.42;0.70;;;10.90;99.90;;;;;;5032267;28;20033;-86
2023/11/06 02:26:25;;;;;;;1.42;1.08;;;10.90;99.90;;;;;;5026140;28;20029;-87
2023/11/06 02:28:52;;;;;;;1.27;0.90;;;10.90;99.90;;;;;;5023784;28;20166;-86
2023/11/06 02:31:17;;;;;;;1.27;1.10;;;10.90;99.90;;;;;;5025831;28;20095;-86
2023/11/06 02:33:43;;;;;;;1.40;1.00;;;11.00;99.90;;;;;;5027784;28;20037;-85
2023/11/06 02:36:09;;;;;;;1.73;1.20;;;10.90;99.90;;;;;;5026071;28;20036;-86
2023/11/06 02:38:35;;;;;;;0.90;0.70;;;11.00;99.90;;;;;;5029515;28;20063;-85
2023/11/06 02:41:02;;;;;;;2.28;1.20;;;11.00;99.90;;;;;;5023405;28;20033;-86
2023/11/06 02:43:27;;;;;;;2.45;1.17;;;11.00;99.90;;;;;;5019549;28;20045;-85
2023/11/06 02:45:55;;;;;;;1.20;1.10;;;11.00;99.90;;;;;;5025668;28;20068;-86
2023/11/06 02:48:21;;;;;;;1.15;0.80;;;11.00;99.90;;;;;;5025154;28;20509;-85
2023/11/06 02:50:46;;;;;;;1.08;0.98;;;11.00;99.90;;;;;;5025677;28;20105;-84
2023/11/06 02:53:12;;;;;;;1.33;1.20;;;11.10;99.90;;;;;;5025832;28;20029;-85
2023/11/06 02:55:37;;;;;;;2.00;1.45;;;11.10;99.90;;;;;;5023808;28;20477;-86
2023/11/06 02:58:03;;;;;;;4.78;1.50;;;11.10;99.90;;;;;;5024000;28;20018;-85
2023/11/06 03:00:29;;;;;;;3.47;1.58;;;11.00;99.90;;;;;;5022420;28;20108;-85
2023/11/06 03:02:55;;;;;;;1.88;1.20;;;11.00;99.90;;;;;;5028476;28;20026;-85
2023/11/06 03:05:22;;;;;;;1.40;1.30;;;11.00;99.90;;;;;;5022811;28;20032;-84
2023/11/06 03:07:47;;;;;;;1.42;1.20;;;11.00;99.90;;;;;;5025917;28;20021;-84
2023/11/06 03:10:14;;;;;;;2.22;1.20;;;11.10;99.90;;;;;;5020685;28;20052;-86
2023/11/06 03:12:40;;;;;;;1.92;1.30;;;11.00;99.90;;;;;;5025889;28;20116;-87
2023/11/06 03:15:06;;;;;;;1.30;1.20;;;11.00;99.90;;;;;;5025737;28;20053;-87
2023/11/06 03:17:32;;;;;;;1.60;1.20;;;10.90;99.90;;;;;;5023165;28;20041;-87
2023/11/06 03:19:58;;;;;;;3.22;1.50;;;10.90;99.90;;;;;;5026635;28;20044;-87
2023/11/06 03:22:23;;;;;;;2.60;1.30;;;10.80;99.90;;;;;;5021493;28;20687;-87
2023/11/06 03:24:49;;;;;;;1.80;1.30;;;10.80;99.90;;;;;;5023834;28;20098;-87
2023/11/06 03:27:14;;;;;;;2.83;1.55;;;10.80;99.90;;;;;;5028192;28;20105;-86
2023/11/06 03:29:40;;;;;;;1.92;1.35;;;10.80;99.90;;;;;;5028095;28;20037;-87
2023/11/06 03:32:06;;;;;;;2.80;1.38;;;10.80;99.90;;;;;;5020784;28;20025;-86
2023/11/06 03:34:31;;;;;;;1.73;1.30;;;10.80;99.90;;;;;;5027839;28;20424;-86
2023/11/06 03:36:57;;;;;;;2.70;1.30;;;10.80;99.90;;;;;;5030366;28;20515;-85
2023/11/06 03:39:22;;;;;;;4.55;1.58;;;10.80;99.90;;;;;;5020162;28;20030;-86
2023/11/06 03:41:48;;;;;;;2.33;1.50;;;10.80;99.90;;;;;;5022858;28;20041;-85
2023/11/06 03:44:13;;;;;;;2.78;1.50;;;10.80;99.90;;;;;;5023990;28;20030;-85
2023/11/06 03:46:39;;;;;;;2.85;1.52;;;10.80;99.90;;;;;;5023202;28;20022;-85
2023/11/06 03:49:06;;;;;;;1.50;1.20;;;10.90;99.90;;;;;;5029511;28;20048;-86
2023/11/06 03:51:32;;;;;;;2.75;1.20;;;10.90;99.90;;;;;;5020361;28;20654;-86
2023/11/06 03:53:58;;;;;;;3.75;1.20;;;10.90;99.90;;;;;;5021977;28;20041;-85
2023/11/06 03:56:24;;;;;;;3.20;1.50;;;10.90;99.90;;;;;;5031218;28;20099;-86
2023/11/06 03:58:49;;;;;;;2.10;1.10;;;10.80;99.90;;;;;;5029911;28;20021;-84
2023/11/06 04:01:15;;;;;;;1.95;1.30;;;10.90;99.90;;;;;;5026254;28;20112;-85
2023/11/06 04:03:41;;;;;;;3.22;1.40;;;10.80;99.90;;;;;;5036410;28;20487;-85
2023/11/06 04:06:07;;;;;;;1.35;1.10;;;10.80;99.90;;;;;;5027754;28;20040;-85
2023/11/06 04:08:33;;;;;;;1.75;1.02;;;10.80;99.90;;;;;;5030774;28;20025;-85
2023/11/06 04:10:58;;;;;;;3.80;1.55;;;10.80;99.90;;;;;;5024686;28;20163;-86
2023/11/06 04:13:24;;;;;;;1.83;1.20;;;10.80;99.90;;;;;;5026577;28;20029;-85
2023/11/06 04:15:50;;;;;;;1.33;0.80;;;10.80;99.90;;;;;;5027722;28;20044;-84
2023/11/06 04:18:15;;;;;;;2.63;1.13;;;10.80;99.90;;;;;;5026995;28;20021;-85
2023/11/06 04:20:43;;;;;;;1.23;1.00;;;10.70;99.90;;;;;;5029730;28;20044;-85
2023/11/06 04:23:09;;;;;;;4.35;1.00;;;10.70;99.90;;;;;;5023671;28;20104;-84
2023/11/06 04:25:38;;;;;;;3.40;1.10;;;10.70;99.90;;;;;;5029805;28;20101;-84
2023/11/06 04:28:08;;;;;;;1.33;0.90;;;10.60;99.90;;;;;;5027191;28;20033;-85
2023/11/06 04:30:34;;;;;;;1.88;1.00;;;10.60;99.90;;;;;;5020657;28;20087;-85
2023/11/06 04:33:00;;;;;;;3.90;1.00;;;10.60;99.90;;;;;;5024418;28;20493;-85
2023/11/06 04:35:26;;;;;;;1.85;0.98;;;10.60;99.90;;;;;;5029960;28;20033;-85
2023/11/06 04:37:52;;;;;;;1.58;1.00;;;10.50;99.90;;;;;;5029370;28;20025;-85
2023/11/06 04:40:19;;;;;;;2.67;0.90;;;10.50;99.90;;;;;;5022716;28;20033;-87
2023/11/06 04:42:46;;;;;;;4.13;1.25;;;10.50;99.90;;;;;;5027009;28;20044;-86
2023/11/06 04:45:12;;;;;;;3.03;0.88;;;10.40;99.90;;;;;;5029488;28;20025;-86
2023/11/06 04:47:38;;;;;;;2.88;1.00;;;10.40;99.90;;;;;;5030630;28;20027;-87
2023/11/06 04:50:03;;;;;;;1.88;0.88;;;10.40;99.90;;;;;;5024657;28;20058;-87
2023/11/06 04:52:29;;;;;;;0.95;0.82;;;10.40;99.90;;;;;;5031224;28;20536;-86
2023/11/06 04:54:55;;;;;;;1.35;1.00;;;10.40;99.90;;;;;;5028642;28;20037;-86
2023/11/06 04:57:20;;;;;;;2.40;1.10;;;10.40;99.90;;;;;;5024919;28;20103;-86
2023/11/06 04:59:46;;;;;;;4.13;1.00;;;10.40;99.90;;;;;;5030489;28;20041;-87
2023/11/06 05:02:11;;;;;;;3.10;1.10;;;10.30;99.90;;;;;;5027273;28;20030;-85
2023/11/06 05:04:37;;;;;;;0.70;0.70;;;10.30;99.90;;;;;;5034010;28;20034;-86
2023/11/06 05:07:04;;;;;;;1.67;0.90;;;10.30;99.90;;;;;;5019549;28;20045;-85
2023/11/06 05:09:29;;;;;;;1.90;1.10;;;10.30;99.90;;;;;;5028703;28;20034;-85
2023/11/06 05:11:55;;;;;;;0.80;0.80;;;10.30;99.90;;;;;;5025418;28;20032;-85
2023/11/06 05:14:21;;;;;;;1.48;0.73;;;10.30;99.90;;;;;;5033228;28;20033;-86
2023/11/06 05:16:46;;;;;;;1.13;0.80;;;10.30;99.90;;;;;;5025100;28;20037;-87
2023/11/06 05:19:12;;;;;;;1.80;1.27;;;10.20;99.90;;;;;;5028281;28;20104;-88
2023/11/06 05:21:38;;;;;;;1.08;0.70;;;10.20;99.90;;;;;;5026589;28;20037;-89
2023/11/06 05:24:04;;;;;;;1.55;0.75;;;10.20;99.90;;;;;;5029145;28;20032;-85
2023/11/06 05:26:29;;;;;;;0.70;0.70;;;10.20;99.90;;;;;;5021169;28;20025;-84
2023/11/06 05:28:55;;;;;;;1.23;0.70;;;10.20;99.90;;;;;;5032625;28;20511;-84
2023/11/06 05:31:22;;;;;;;3.15;1.75;;;10.20;99.90;;;;;;5027064;28;20044;-86
2023/11/06 05:33:51;;;;;;;1.25;0.80;;;10.20;99.90;;;;;;5028964;28;20029;-84
2023/11/06 05:36:17;;;;;;;2.60;0.90;;;10.10;99.90;;;;;;5023652;28;20025;-84
2023/11/06 05:38:44;;;;;;;1.90;0.90;;;10.10;99.90;;;;;;5027793;28;20087;-84
2023/11/06 05:41:11;;;;;;;1.23;0.70;;;10.10;99.90;;;;;;5032992;28;20033;-84
2023/11/06 05:43:37;;;;;;;1.30;0.90;;;10.20;99.90;;;;;;5024670;28;20435;-88
2023/11/06 05:46:03;;;;;;;1.30;0.82;;;10.20;99.90;;;;;;5028493;28;20494;-87
2023/11/06 05:48:29;;;;;;;3.35;0.88;;;10.10;99.90;;;;;;5031938;28;20045;-86
2023/11/06 05:50:54;;;;;;;1.83;1.00;;;10.10;99.90;;;;;;5042363;28;20044;-85
2023/11/06 05:53:20;;;;;;;4.68;1.00;;;10.10;99.90;;;;;;5034983;28;20017;-85
2023/11/06 05:55:47;;;;;;;1.77;0.80;;;10.10;99.90;;;;;;5029345;28;20554;-86
2023/11/06 05:58:16;;;;;;;1.98;1.00;;;10.10;99.90;;;;;;5027534;28;20043;-84
2023/11/06 06:00:42;;;;;;;2.45;1.00;;;10.10;99.90;;;;;;5019763;28;20095;-84
2023/11/06 06:03:08;;;;;;;2.25;1.00;;;10.20;99.90;;;;;;5028068;28;20030;-87
2023/11/06 06:05:34;;;;;;;2.97;1.00;;;10.20;99.90;;;;;;5025887;28;20109;-86
2023/11/06 06:08:00;;;;;;;2.28;1.05;;;10.20;99.90;;;;;;5026749;28;20109;-85
2023/11/06 06:10:25;;;;;;;3.25;1.20;;;10.30;99.90;;;;;;5032540;28;20128;-86
2023/11/06 06:12:51;;;;;;;3.78;1.23;;;10.20;99.90;;;;;;5030489;28;20101;-85
2023/11/06 06:15:17;;;;;;;2.67;1.10;;;10.20;99.90;;;;;;5033118;28;20021;-83
2023/11/06 06:17:42;;;;;;;3.53;1.50;;;10.20;99.90;;;;;;5028007;28;20696;-86
2023/11/06 06:20:12;;;;;;;4.03;1.10;;;10.30;99.90;;;;;;5026677;28;20477;-86
2023/11/06 06:22:41;;;;;;;2.80;1.23;;;10.30;99.90;;;;;;5022051;28;20040;-86
2023/11/06 06:25:08;;;;;;;3.80;1.27;;;10.30;99.90;;;;;;5024292;28;20052;-87
2023/11/06 06:27:34;;;;;;;3.25;1.65;;;10.40;99.90;;;;;;5026446;28;20033;-87
2023/11/06 06:29:59;;;;;;;3.92;1.20;;;10.40;99.90;;;;;;5019609;28;20041;-87
2023/11/06 06:32:25;;;;;;;3.08;1.30;;;10.40;99.90;;;;;;5025051;28;20029;-88
2023/11/06 06:34:51;;;;;;;2.70;1.60;;;10.40;99.90;;;;;;5021658;28;20563;-87
2023/11/06 06:37:16;;;;;;;2.38;1.20;;;10.40;99.90;;;;;;5021993;28;20064;-87
2023/11/06 06:39:43;;;;;;;2.30;1.40;;;10.40;99.90;;;;;;5025695;28;20029;-89
2023/11/06 06:42:09;;;;;;;4.72;1.60;;;10.40;99.90;;;;;;5025015;28;20487;-88
2023/11/06 06:44:36;;;;;;;5.13;1.30;;;10.50;99.90;;;;;;5025421;28;20029;-88
2023/11/06 06:47:02;;;;;;;4.90;1.70;;;10.50;99.90;;;;;;5023313;28;20030;-87
2023/11/06 06:49:28;;;;;;;4.75;1.73;;;10.50;99.90;;;;;;5029765;28;20511;-90
2023/11/06 06:51:54;;;;;;;1.92;1.23;;;10.50;99.90;;;;;;5020462;28;21536;-87
2023/11/06 06:54:20;;;;;;;5.55;1.60;;;10.60;99.90;;;;;;5025331;28;20146;-86
2023/11/06 06:56:46;;;;;;;3.88;2.00;;;10.50;99.90;;;;;;5021877;28;20037;-86
2023/11/06 06:59:12;;;;;;;5.75;2.20;;;10.50;99.90;;;;;;5021950;28;23105;-86
2023/11/06 07:01:37;;;;;;;2.80;1.60;;;10.50;99.90;;;;;;5038339;28;20414;-85
2023/11/06 07:04:04;;;;;;;2.88;1.50;;;10.60;99.90;;;;;;5110369;22;20061;-87
2023/11/06 07:22:15;;;;;;;6.07;2.10;;;10.50;99.90;;;;;;5032126;28;20033;-89
2023/11/06 07:24:40;;;;;;;4.72;1.90;;;10.50;99.90;;;;;;5044469;28;20017;-85
2023/11/06 07:27:06;;;;;;;4.50;1.65;;;10.60;99.90;;;;;;5027158;28;20025;-86
2023/11/06 07:29:36;;;;;;;5.75;2.22;;;10.60;99.90;;;;;;5022775;28;20045;-86
2023/11/06 07:32:02;;;;;;;4.28;1.63;;;10.60;99.90;;;;;;5018196;28;20023;-87
2023/11/06 07:34:28;;;;;;;4.28;1.60;;;10.60;99.90;;;;;;5019790;28;20018;-85
2023/11/06 07:36:56;;;;;;;1.23;1.13;;;10.60;99.90;;;;;;5024051;28;20026;-87
2023/11/06 07:39:27;;;;;;;3.72;1.60;;;10.70;99.90;;;;;;5027858;28;20033;-88
2023/11/06 07:41:55;;;;;;;5.68;1.67;;;10.70;99.90;;;;;;5027543;28;20026;-87
2023/11/06 07:44:36;;;;;;;4.40;1.45;;;10.70;99.90;;;;;;5021418;28;20034;-87
2023/11/06 07:47:02;;;;;;;4.15;1.63;;;10.70;99.90;;;;;;5024454;28;20038;-86
2023/11/06 07:49:30;;;;;;;5.70;1.70;;;10.70;99.90;;;;;;5022248;28;20040;-86
2023/11/06 07:54:46;;;;;;;4.63;1.75;;;10.80;99.90;;;;;;5014168;28;20370;-86
2023/11/06 07:57:12;;;;;;;4.82;1.65;;;10.80;99.90;;;;;;5028305;28;20018;-87
2023/11/06 07:59:52;;;;;;;4.05;1.58;;;10.90;99.70;;;;;;5029263;28;20040;-87
2023/11/06 08:02:20;;;;;;;4.10;1.60;;;10.90;99.50;;;;;;5028876;28;20113;-88
2023/11/06 08:04:52;;;;;;;3.83;1.70;;;10.90;99.30;;;;;;5029213;28;20100;-87
2023/11/06 08:07:51;;;;;;;;;;;;;;;;;;;;;
2023/11/06 08:10:27;;;;;;;3.67;1.33;;;11.00;98.90;;;;;;5026145;28;20548;-86
2023/11/06 08:43:47;;;;;;;4.88;1.70;;;11.20;97.70;;;;;;5049921;28;20071;-86
2023/11/06 08:46:22;;;;;;;2.42;1.40;;;11.20;97.30;;;;;;5035746;28;20041;-85
2023/11/06 08:49:01;;;;;;;7.13;2.08;;;11.30;97.20;;;;;;5040264;28;20045;-86
2023/11/06 08:51:39;;;;;;;6.55;1.65;;;11.30;96.50;;;;;;5033522;28;20001;-86
2023/11/06 08:54:10;;;;;;;5.05;1.50;;;11.30;96.40;;;;;;5029278;28;20010;-87
2023/11/06 08:56:38;;;;;;;5.05;1.63;;;11.30;96.00;;;;;;5032738;28;20097;-86
2023/11/06 08:59:05;;;;;;;4.10;1.17;;;11.40;95.90;;;;;;5033276;28;20037;-86
2023/11/06 09:01:35;;;;;;;5.30;1.40;;;11.40;96.00;;;;;;5052558;28;20026;-86
2023/11/06 09:04:28;;;;;;;7.40;1.55;;;11.50;95.90;;;;;;5032548;28;20054;-87
2023/11/06 09:09:37;;;;;;;2.45;1.13;;;11.50;95.60;;;;;;5755127;22;20042;-85
2023/11/06 09:12:18;;;;;;;6.05;1.27;;;11.70;95.80;;;;;;5558797;22;20481;-86
2023/11/06 09:19:52;;;;;;;5.03;1.60;;;12.10;96.00;;;;;;5054124;28;20256;-86
2023/11/06 09:22:32;;;;;;;3.80;1.35;;;12.20;95.70;;;;;;5035226;28;20084;-86
2023/11/06 09:24:57;;;;;;;7.07;1.95;;;12.30;95.30;;;;;;5030752;28;20096;-87
2023/11/06 09:27:23;;;;;;;5.68;1.65;;;12.30;94.80;;;;;;5045154;28;20061;-87
2023/11/06 09:29:49;;;;;;;6.88;1.80;;;12.30;94.00;;;;;;5049724;28;20051;-85
2023/11/06 09:32:23;;;;;;;4.40;1.42;;;12.30;93.80;;;;;;5048449;28;20092;-87
2023/11/06 09:34:55;;;;;;;8.35;1.60;;;12.30;94.00;;;;;;5044666;28;20033;-88
2023/11/06 09:37:32;;;;;;;4.72;1.35;;;12.30;93.80;;;;;;5045323;28;20504;-87
2023/11/06 09:39:58;;;;;;;2.70;1.00;;;12.30;93.70;;;;;;5041969;28;20057;-88
2023/11/06 09:42:25;;;;;;;3.75;1.10;;;12.40;93.90;;;;;;5044228;28;20075;-88
2023/11/06 09:45:27;;;;;;;6.03;1.20;;;12.40;94.10;;;;;;5045495;28;20013;-87
2023/11/06 09:47:57;;;;;;;4.88;1.33;;;12.50;93.70;;;;;;4947428;29;20047;-88
2023/11/06 09:50:24;;;;;;;1.98;1.13;;;12.50;93.70;;;;;;5028957;28;20124;-89
2023/11/06 09:52:54;;;;;;;6.13;1.50;;;12.50;93.80;;;;;;5052279;28;20014;-89
2023/11/06 09:55:26;;;;;;;8.17;1.90;;;12.60;93.50;;;;;;5517847;22;20060;-88
2023/11/06 09:58:09;;;;;;;6.22;1.70;;;12.60;92.90;;;;;;5012987;28;20038;-87
2023/11/06 10:01:05;;;;;;;4.60;1.50;;;12.60;92.90;;;;;;5011301;28;20041;-89
2023/11/06 10:03:36;;;;;;;7.15;2.13;;;12.70;92.80;;;;;;5005868;28;20034;-88
2023/11/06 10:06:03;;;;;;;5.10;1.13;;;12.80;92.70;;;;;;5012208;28;20061;-90
2023/11/06 10:08:30;;;;;;;4.00;1.65;;;12.90;92.50;;;;;;4990305;28;20035;-89
2023/11/06 10:11:04;;;;;;;7.75;1.30;;;12.90;92.50;;;;;;4989627;28;20042;-89
2023/11/06 10:13:30;;;;;;;5.05;1.48;;;12.90;92.40;;;;;;4989124;28;20042;-88
2023/11/06 10:15:56;;;;;;;5.22;1.40;;;12.90;92.20;;;;;;4994749;23;20034;-84
2023/11/06 10:20:57;;;;;;;6.63;1.50;;;12.80;91.70;;;;;;5042377;23;20050;-91
2023/11/06 10:23:27;;;;;;;5.00;1.25;;;12.90;91.70;;;;;;5010337;28;20097;-92
2023/11/06 10:26:15;;;;;;;3.70;1.40;;;12.90;91.80;;;;;;5021947;28;20029;-90
2023/11/06 10:36:31;;;;;;;3.53;1.50;;;12.90;91.30;;;;;;5612896;22;20041;-89
2023/11/06 10:39:13;;;;;;;4.32;1.33;;;13.00;91.60;;;;;;5039729;28;20096;-89
2023/11/06 10:41:43;;;;;;;5.90;1.45;;;13.00;91.20;;;;;;5038667;28;20045;-88
2023/11/06 10:44:10;;;;;;;6.20;1.40;;;13.00;91.10;;;;;;5041401;28;20024;-88
2023/11/06 10:46:38;;;;;;;13.18;1.90;;;13.00;91.00;;;;;;5042538;28;20033;-89
2023/11/06 10:49:10;;;;;;;5.70;1.85;;;13.00;90.50;;;;;;5038817;28;20060;-88
2023/11/06 10:51:48;;;;;;;;;;;;;;;;;;;;;
2023/11/06 10:54:19;;;;;;;4.63;1.45;;;12.90;90.30;;;;;;5027207;28;20105;-88
2023/11/06 10:56:46;;;;;;;5.93;1.80;;;12.90;90.50;;;;;;5308392;23;20060;-89
2023/11/06 10:59:14;;;;;;;3.83;1.50;;;12.90;90.40;;;;;;5941369;23;20053;-89
2023/11/06 11:01:43;;;;;;;9.55;1.95;;;12.90;90.30;;;;;;5054362;28;20187;-89
2023/11/06 11:04:10;;;;;;;4.18;1.40;;;12.80;90.10;;;;;;5063995;28;20033;-88
2023/11/06 11:06:51;;;;;;;4.72;1.35;;;12.90;90.40;;;;;;5050816;28;20041;-89
2023/11/06 11:09:28;;;;;;;4.43;1.52;;;13.00;90.30;;;;;;5041501;28;20048;-90
2023/11/06 11:12:13;;;;;;;5.75;1.80;;;13.00;90.30;;;;;;5040463;28;20026;-90
2023/11/06 11:14:41;;;;;;;3.88;1.25;;;13.00;90.10;;;;;;5045981;28;20061;-89
2023/11/06 11:17:09;;;;;;;2.40;1.17;;;13.00;90.20;;;;;;5041643;28;20450;-90
2023/11/06 11:19:42;;;;;;;2.78;1.33;;;13.00;90.30;;;;;;5029915;28;20047;-90
2023/11/06 11:22:15;;;;;;;6.25;1.63;;;13.00;90.20;;;;;;5048836;28;20034;-90
2023/11/06 11:24:54;;;;;;;3.92;1.35;;;13.00;90.00;;;;;;5032337;28;20067;-90
2023/11/06 11:27:27;;;;;;;6.05;1.60;;;13.00;90.00;;;;;;5044751;28;20068;-90
2023/11/06 11:30:58;;;;;;;5.63;1.40;;;13.00;90.00;;;;;;5028200;28;20037;-89
2023/11/06 11:33:53;;;;;;;4.25;1.35;;;13.00;89.60;;;;;;5047781;28;20121;-89
2023/11/06 11:36:40;;;;;;;5.40;1.70;;;12.90;88.90;;;;;;5047268;28;20217;-89
2023/11/06 11:39:22;;;;;;;3.25;1.10;;;12.90;89.20;;;;;;5015887;28;20100;-89
2023/11/06 11:44:30;;;;;;;3.53;1.30;;;13.00;89.20;;;;;;5032538;28;20049;-89
2023/11/06 11:47:06;;;;;;;4.82;1.30;;;13.00;89.30;;;;;;5022305;28;20029;-89
2023/11/06 11:49:52;;;;;;;3.45;1.08;;;13.00;89.60;;;;;;5025740;28;20106;-91
2023/11/06 11:52:24;;;;;;;3.42;1.20;;;13.10;89.80;;;;;;5026241;28;20014;-90
2023/11/06 11:55:30;;;;;;;4.43;1.30;;;13.10;90.10;;;;;;5023207;28;20030;-90
2023/11/06 11:58:07;;;;;;;7.13;1.58;;;13.10;89.70;;;;;;4997496;28;20042;-89
2023/11/06 12:00:40;;;;;;;5.38;1.60;;;13.10;89.70;;;;;;5018898;28;20033;-89
2023/11/06 12:03:10;;;;;;;4.57;1.80;;;13.10;90.00;;;;;;5022149;28;20057;-88
2023/11/06 12:08:23;;;;;;;3.00;1.10;;;13.10;89.40;;;;;;5048731;26;20038;-84
2023/11/06 12:10:50;;;;;;;4.18;1.20;;;13.20;89.80;;;;;;5027294;28;20045;-84
2023/11/06 12:13:25;;;;;;;4.53;1.50;;;13.20;89.90;;;;;;5026989;28;20522;-82
2023/11/06 12:15:59;;;;;;;3.17;1.40;;;13.20;89.20;;;;;;5355928;22;20049;-89
2023/11/06 12:18:37;;;;;;;5.03;1.65;;;13.10;89.30;;;;;;5006164;28;20026;-89
2023/11/06 12:24:45;;;;;;;2.85;1.10;;;13.20;89.10;;;;;;5018288;28;20057;-90
2023/11/06 12:33:36;;;;;;;4.20;1.13;;;13.20;89.60;;;;;;5003689;28;20049;-89
2023/11/06 12:44:46;;;;;;;;;;;;;;;;;;;;;
2023/11/06 12:48:18;;;;;;;4.00;1.13;;;13.10;89.00;;;;;;4989167;28;20101;-89
2023/11/06 12:51:15;;;;;;;4.68;1.70;;;13.10;89.40;;;;;;5026652;28;20077;-90
2023/11/06 12:53:44;;;;;;;4.13;1.40;;;13.10;89.60;;;;;;5039199;28;20029;-90
2023/11/06 12:56:10;;;;;;;5.03;1.30;;;13.10;89.70;;;;;;5088819;23;20053;-90
2023/11/06 12:59:14;;;;;;;4.55;1.50;;;13.10;89.10;;;;;;5013291;28;20042;-90
2023/11/06 13:01:47;;;;;;;4.32;1.55;;;13.00;89.00;;;;;;5018264;28;20033;-91
2023/11/06 13:04:12;;;;;;;3.70;1.20;;;13.00;89.40;;;;;;5495266;23;20041;-82
2023/11/06 13:09:36;;;;;;;2.47;1.10;;;13.00;89.60;;;;;;5104287;23;20045;-88
2023/11/06 13:12:14;;;;;;;2.70;1.10;;;13.00;89.80;;;;;;5033545;28;20041;-89
2023/11/06 13:14:46;;;;;;;2.85;1.02;;;12.90;90.00;;;;;;5014193;28;20034;-89
2023/11/06 13:17:23;;;;;;;5.60;1.50;;;12.90;90.10;;;;;;5035567;28;20029;-89
2023/11/06 13:20:27;;;;;;;2.90;1.30;;;12.90;90.10;;;;;;5011968;28;21778;-90
2023/11/06 13:22:57;;;;;;;2.92;0.90;;;12.80;90.20;;;;;;5006919;28;20027;-87
2023/11/06 13:25:33;;;;;;;1.73;0.93;;;12.90;90.40;;;;;;5001754;28;20049;-87
2023/11/06 13:31:32;;;;;;;4.70;1.30;;;13.00;90.30;;;;;;5001297;28;20049;-87
2023/11/06 13:33:58;;;;;;;4.53;1.25;;;13.00;90.30;;;;;;5010374;28;20026;-87
2023/11/06 13:36:42;;;;;;;5.18;1.00;;;12.90;90.30;;;;;;5012977;28;20036;-86
2023/11/06 13:39:14;;;;;;;2.78;1.10;;;13.00;90.50;;;;;;5009730;28;20468;-86
2023/11/06 13:41:43;;;;;;;3.22;1.05;;;13.00;90.60;;;;;;5026851;28;20022;-86
2023/11/06 13:44:12;;;;;;;2.58;1.10;;;13.00;90.50;;;;;;4990251;28;20030;-87
2023/11/06 13:46:38;;;;;;;3.90;1.10;;;13.00;90.50;;;;;;5008115;28;20029;-87
2023/11/06 13:49:04;;;;;;;3.58;1.08;;;13.00;90.50;;;;;;5010216;28;20038;-87
2023/11/06 13:51:30;;;;;;;2.50;0.93;;;13.00;90.60;;;;;;5010050;28;20052;-86
2023/11/06 13:54:05;;;;;;;1.75;0.93;;;13.00;90.70;;;;;;5014802;28;20026;-87
2023/11/06 13:56:33;;;;;;;1.83;0.70;;;13.00;90.80;;;;;;5009802;28;20022;-86
2023/11/06 13:59:00;;;;;;;3.55;1.00;;;13.00;90.90;;;;;;5014217;28;20492;-86
2023/11/06 14:01:44;;;;;;;3.72;1.88;;;12.90;91.00;;;;;;5013588;28;20025;-87
2023/11/06 14:04:10;;;;;;;3.72;1.25;;;12.80;91.00;;;;;;5011814;28;20026;-86
2023/11/06 14:06:36;;;;;;;2.30;1.30;;;12.80;91.00;;;;;;5009830;28;20091;-85
2023/11/06 14:09:24;;;;;;;3.95;1.23;;;12.70;90.80;;;;;;5012264;28;20023;-86
2023/11/06 14:11:51;;;;;;;1.73;1.30;;;12.70;90.90;;;;;;5031052;28;20026;-86
2023/11/06 14:14:18;;;;;;;2.47;1.10;;;12.70;90.90;;;;;;5029050;28;20030;-86
2023/11/06 14:16:45;;;;;;;1.70;0.95;;;12.70;91.00;;;;;;5008396;28;20141;-86
2023/11/06 14:19:10;;;;;;;1.90;0.90;;;12.70;91.10;;;;;;5011970;28;20025;-85
2023/11/06 14:21:42;;;;;;;5.45;1.30;;;12.70;91.20;;;;;;5014576;28;20053;-87
2023/11/06 14:24:10;;;;;;;2.25;1.00;;;12.70;91.20;;;;;;5014011;28;20072;-86
2023/11/06 14:26:43;;;;;;;4.50;1.27;;;12.70;91.30;;;;;;5345460;23;20053;-86
2023/11/06 14:29:48;;;;;;;1.25;1.05;;;12.70;91.30;;;;;;5019725;28;20078;-87
2023/11/06 14:32:25;;;;;;;2.13;1.15;;;12.70;91.30;;;;;;5025083;28;20022;-85
2023/11/06 14:34:54;;;;;;;4.32;1.50;;;12.70;91.30;;;;;;5020909;28;20014;-86
2023/11/06 14:37:32;;;;;;;;;;;;;;;;;;;;;
2023/11/06 14:39:58;;;;;;;1.73;1.00;;;12.70;91.20;;;;;;5021988;28;20049;-85
2023/11/06 14:42:26;;;;;;;1.55;0.93;;;12.70;91.30;;;;;;5021099;28;20022;-84